sensor_id;sensor_type;location;lat;lon;timestamp;temperature;humidity
72940;DHT22;61094;51.154;13.570;2023-06-14T00:03:31;13.20;91.70
72940;DHT22;61094;51.154;13.570;2023-06-14T00:08:33;13.10;92.00
72940;DHT22;61094;51.154;13.570;2023-06-14T00:13:36;13.10;92.50
72940;DHT22;61094;51.154;13.570;2023-06-14T00:18:38;13.00;94.40
72940;DHT22;61094;51.154;13.570;2023-06-14T00:23:40;12.90;93.60
72940;DHT22;61094;51.154;13.570;2023-06-14T00:28:43;12.90;92.50
72940;DHT22;61094;51.154;13.570;2023-06-14T00:33:44;12.90;94.60
72940;DHT22;61094;51.154;13.570;2023-06-14T00:38:46;12.90;93.70
72940;DHT22;61094;51.154;13.570;2023-06-14T00:43:50;12.80;95.00
72940;DHT22;61094;51.154;13.570;2023-06-14T00:48:52;12.70;95.60
72940;DHT22;61094;51.154;13.570;2023-06-14T00:53:55;12.60;94.80
72940;DHT22;61094;51.154;13.570;2023-06-14T00:58:58;12.40;94.50
72940;DHT22;61094;51.154;13.570;2023-06-14T01:04:00;12.20;96.00
72940;DHT22;61094;51.154;13.570;2023-06-14T01:09:09;12.00;95.60
72940;DHT22;61094;51.154;13.570;2023-06-14T01:14:14;11.90;96.50
72940;DHT22;61094;51.154;13.570;2023-06-14T01:19:17;11.80;97.50
72940;DHT22;61094;51.154;13.570;2023-06-14T01:24:21;11.80;98.70
72940;DHT22;61094;51.154;13.570;2023-06-14T01:29:27;11.80;98.10
72940;DHT22;61094;51.154;13.570;2023-06-14T01:34:32;11.60;96.80
72940;DHT22;61094;51.154;13.570;2023-06-14T01:39:35;11.50;98.00
72940;DHT22;61094;51.154;13.570;2023-06-14T01:44:37;11.30;98.70
72940;DHT22;61094;51.154;13.570;2023-06-14T01:49:39;11.20;99.30
72940;DHT22;61094;51.154;13.570;2023-06-14T01:54:44;11.10;99.90
72940;DHT22;61094;51.154;13.570;2023-06-14T01:59:46;11.10;99.90
72940;DHT22;61094;51.154;13.570;2023-06-14T02:04:48;10.90;99.40
72940;DHT22;61094;51.154;13.570;2023-06-14T02:09:51;10.80;99.90
72940;DHT22;61094;51.154;13.570;2023-06-14T02:14:53;10.70;99.90
72940;DHT22;61094;51.154;13.570;2023-06-14T02:19:57;10.60;98.90
72940;DHT22;61094;51.154;13.570;2023-06-14T02:25:01;10.50;99.30
72940;DHT22;61094;51.154;13.570;2023-06-14T02:30:04;10.40;99.90
72940;DHT22;61094;51.154;13.570;2023-06-14T02:35:08;10.30;99.90
72940;DHT22;61094;51.154;13.570;2023-06-14T02:40:12;10.20;99.90
72940;DHT22;61094;51.154;13.570;2023-06-14T02:45:14;10.10;99.90
72940;DHT22;61094;51.154;13.570;2023-06-14T02:50:15;10.10;99.90
72940;DHT22;61094;51.154;13.570;2023-06-14T02:55:19;10.10;99.90
72940;DHT22;61094;51.154;13.570;2023-06-14T03:00:21;10.10;99.90
72940;DHT22;61094;51.154;13.570;2023-06-14T03:05:23;10.00;99.90
72940;DHT22;61094;51.154;13.570;2023-06-14T03:10:27;10.00;99.90
72940;DHT22;61094;51.154;13.570;2023-06-14T03:15:30;10.00;99.90
72940;DHT22;61094;51.154;13.570;2023-06-14T03:20:34;9.90;99.90
72940;DHT22;61094;51.154;13.570;2023-06-14T03:25:37;9.80;99.90
72940;DHT22;61094;51.154;13.570;2023-06-14T03:30:44;9.70;99.90
72940;DHT22;61094;51.154;13.570;2023-06-14T03:35:46;9.70;99.90
72940;DHT22;61094;51.154;13.570;2023-06-14T03:40:50;9.80;99.90
72940;DHT22;61094;51.154;13.570;2023-06-14T03:45:52;9.90;99.90
72940;DHT22;61094;51.154;13.570;2023-06-14T03:50:56;9.90;99.90
72940;DHT22;61094;51.154;13.570;2023-06-14T03:56:00;9.90;99.90
72940;DHT22;61094;51.154;13.570;2023-06-14T04:01:10;9.90;99.90
72940;DHT22;61094;51.154;13.570;2023-06-14T04:06:13;10.00;99.90
72940;DHT22;61094;51.154;13.570;2023-06-14T04:11:21;10.00;99.90
72940;DHT22;61094;51.154;13.570;2023-06-14T04:16:22;10.00;99.90
72940;DHT22;61094;51.154;13.570;2023-06-14T04:21:24;10.10;99.90
72940;DHT22;61094;51.154;13.570;2023-06-14T04:32:54;9.90;99.90
72940;DHT22;61094;51.154;13.570;2023-06-14T04:37:56;9.90;99.90
72940;DHT22;61094;51.154;13.570;2023-06-14T04:42:59;10.10;99.90
72940;DHT22;61094;51.154;13.570;2023-06-14T04:48:03;10.30;99.90
72940;DHT22;61094;51.154;13.570;2023-06-14T04:53:05;10.50;99.90
72940;DHT22;61094;51.154;13.570;2023-06-14T04:58:08;10.70;99.90
72940;DHT22;61094;51.154;13.570;2023-06-14T05:03:15;10.80;99.90
72940;DHT22;61094;51.154;13.570;2023-06-14T05:08:18;11.00;99.90
72940;DHT22;61094;51.154;13.570;2023-06-14T05:13:21;11.40;99.90
72940;DHT22;61094;51.154;13.570;2023-06-14T05:18:25;11.90;99.90
72940;DHT22;61094;51.154;13.570;2023-06-14T05:23:27;12.20;99.90
72940;DHT22;61094;51.154;13.570;2023-06-14T05:28:28;12.20;99.90
72940;DHT22;61094;51.154;13.570;2023-06-14T05:33:32;12.20;99.90
72940;DHT22;61094;51.154;13.570;2023-06-14T05:38:34;12.30;99.90
72940;DHT22;61094;51.154;13.570;2023-06-14T05:43:36;12.50;99.90
72940;DHT22;61094;51.154;13.570;2023-06-14T05:48:39;12.50;99.90
72940;DHT22;61094;51.154;13.570;2023-06-14T05:53:40;12.70;99.90
72940;DHT22;61094;51.154;13.570;2023-06-14T05:58:42;12.90;99.90
72940;DHT22;61094;51.154;13.570;2023-06-14T06:03:45;13.00;99.90
72940;DHT22;61094;51.154;13.570;2023-06-14T06:08:47;13.10;99.90
72940;DHT22;61094;51.154;13.570;2023-06-14T06:13:48;13.20;99.90
72940;DHT22;61094;51.154;13.570;2023-06-14T06:18:52;13.30;99.90
72940;DHT22;61094;51.154;13.570;2023-06-14T06:23:54;13.50;99.90
72940;DHT22;61094;51.154;13.570;2023-06-14T06:28:56;13.80;98.90
72940;DHT22;61094;51.154;13.570;2023-06-14T06:33:59;14.00;97.30
72940;DHT22;61094;51.154;13.570;2023-06-14T06:39:00;14.20;98.20
72940;DHT22;61094;51.154;13.570;2023-06-14T06:44:06;14.50;96.90
72940;DHT22;61094;51.154;13.570;2023-06-14T06:49:10;14.70;96.00
72940;DHT22;61094;51.154;13.570;2023-06-14T06:54:12;14.80;95.10
72940;DHT22;61094;51.154;13.570;2023-06-14T06:59:14;15.00;94.50
72940;DHT22;61094;51.154;13.570;2023-06-14T07:04:18;15.10;94.10
72940;DHT22;61094;51.154;13.570;2023-06-14T07:09:20;15.30;91.90
72940;DHT22;61094;51.154;13.570;2023-06-14T07:14:23;15.70;91.60
72940;DHT22;61094;51.154;13.570;2023-06-14T07:19:26;16.10;89.40
72940;DHT22;61094;51.154;13.570;2023-06-14T07:24:27;16.70;81.70
72940;DHT22;61094;51.154;13.570;2023-06-14T07:29:29;17.60;79.20
72940;DHT22;61094;51.154;13.570;2023-06-14T07:34:32;18.50;57.60
72940;DHT22;61094;51.154;13.570;2023-06-14T07:39:34;18.90;57.20
72940;DHT22;61094;51.154;13.570;2023-06-14T07:44:36;19.50;55.20
72940;DHT22;61094;51.154;13.570;2023-06-14T07:49:39;20.00;54.40
72940;DHT22;61094;51.154;13.570;2023-06-14T07:54:41;20.20;46.30
72940;DHT22;61094;51.154;13.570;2023-06-14T07:59:43;20.40;45.10
72940;DHT22;61094;51.154;13.570;2023-06-14T08:04:46;20.80;44.20
72940;DHT22;61094;51.154;13.570;2023-06-14T08:09:48;20.90;43.10
72940;DHT22;61094;51.154;13.570;2023-06-14T08:14:50;20.50;44.50
72940;DHT22;61094;51.154;13.570;2023-06-14T08:19:53;20.20;43.60
72940;DHT22;61094;51.154;13.570;2023-06-14T08:24:57;20.30;43.70
72940;DHT22;61094;51.154;13.570;2023-06-14T08:29:59;20.80;42.10
72940;DHT22;61094;51.154;13.570;2023-06-14T08:35:02;21.50;40.80
72940;DHT22;61094;51.154;13.570;2023-06-14T08:40:05;21.60;39.50
72940;DHT22;61094;51.154;13.570;2023-06-14T08:45:09;21.70;39.90
72940;DHT22;61094;51.154;13.570;2023-06-14T08:50:13;21.70;39.10
72940;DHT22;61094;51.154;13.570;2023-06-14T08:55:16;21.80;38.20
72940;DHT22;61094;51.154;13.570;2023-06-14T09:00:20;21.50;39.30
72940;DHT22;61094;51.154;13.570;2023-06-14T09:05:26;21.50;39.90
72940;DHT22;61094;51.154;13.570;2023-06-14T09:10:28;21.50;38.90
72940;DHT22;61094;51.154;13.570;2023-06-14T09:15:35;22.10;37.70
72940;DHT22;61094;51.154;13.570;2023-06-14T09:20:38;22.40;36.20
72940;DHT22;61094;51.154;13.570;2023-06-14T09:25:46;22.60;35.40
72940;DHT22;61094;51.154;13.570;2023-06-14T09:30:47;22.70;35.70
72940;DHT22;61094;51.154;13.570;2023-06-14T09:35:54;22.60;36.00
72940;DHT22;61094;51.154;13.570;2023-06-14T09:40:57;22.30;36.80
72940;DHT22;61094;51.154;13.570;2023-06-14T09:46:00;22.20;37.20
72940;DHT22;61094;51.154;13.570;2023-06-14T09:51:04;22.10;37.20
72940;DHT22;61094;51.154;13.570;2023-06-14T09:56:07;21.90;37.20
72940;DHT22;61094;51.154;13.570;2023-06-14T10:01:08;21.60;37.90
72940;DHT22;61094;51.154;13.570;2023-06-14T10:06:15;21.20;38.40
72940;DHT22;61094;51.154;13.570;2023-06-14T10:11:18;20.90;39.20
72940;DHT22;61094;51.154;13.570;2023-06-14T10:16:23;21.40;40.00
72940;DHT22;61094;51.154;13.570;2023-06-14T10:21:33;22.00;39.00
72940;DHT22;61094;51.154;13.570;2023-06-14T10:26:50;22.30;37.10
72940;DHT22;61094;51.154;13.570;2023-06-14T10:31:59;22.70;37.70
72940;DHT22;61094;51.154;13.570;2023-06-14T10:37:19;23.20;36.70
72940;DHT22;61094;51.154;13.570;2023-06-14T10:42:23;23.40;35.90
72940;DHT22;61094;51.154;13.570;2023-06-14T10:47:30;23.30;35.90
72940;DHT22;61094;51.154;13.570;2023-06-14T10:52:36;23.20;36.40
72940;DHT22;61094;51.154;13.570;2023-06-14T10:57:40;23.50;35.70
72940;DHT22;61094;51.154;13.570;2023-06-14T11:09:00;23.40;36.40
72940;DHT22;61094;51.154;13.570;2023-06-14T11:14:07;23.00;37.10
72940;DHT22;61094;51.154;13.570;2023-06-14T11:19:10;22.80;37.80
72940;DHT22;61094;51.154;13.570;2023-06-14T11:24:13;23.10;38.40
72940;DHT22;61094;51.154;13.570;2023-06-14T11:29:16;23.00;38.10
72940;DHT22;61094;51.154;13.570;2023-06-14T11:34:18;22.30;39.40
72940;DHT22;61094;51.154;13.570;2023-06-14T11:39:24;21.80;40.70
72940;DHT22;61094;51.154;13.570;2023-06-14T11:44:27;21.50;41.80
72940;DHT22;61094;51.154;13.570;2023-06-14T11:49:35;21.60;42.00
72940;DHT22;61094;51.154;13.570;2023-06-14T11:54:38;21.80;41.50
72940;DHT22;61094;51.154;13.570;2023-06-14T11:59:41;21.80;41.80
72940;DHT22;61094;51.154;13.570;2023-06-14T12:04:47;21.70;41.60
72940;DHT22;61094;51.154;13.570;2023-06-14T12:10:07;21.80;41.80
72940;DHT22;61094;51.154;13.570;2023-06-14T12:15:11;22.00;41.70
72940;DHT22;61094;51.154;13.570;2023-06-14T12:20:14;22.20;41.60
72940;DHT22;61094;51.154;13.570;2023-06-14T12:25:33;22.20;41.50
72940;DHT22;61094;51.154;13.570;2023-06-14T12:30:37;21.80;41.90
72940;DHT22;61094;51.154;13.570;2023-06-14T12:35:38;21.60;43.50
72940;DHT22;61094;51.154;13.570;2023-06-14T12:40:43;21.50;45.10
72940;DHT22;61094;51.154;13.570;2023-06-14T12:45:45;21.40;46.90
72940;DHT22;61094;51.154;13.570;2023-06-14T12:50:48;21.50;45.40
72940;DHT22;61094;51.154;13.570;2023-06-14T12:55:52;21.40;44.70
72940;DHT22;61094;51.154;13.570;2023-06-14T13:00:54;21.40;45.50
72940;DHT22;61094;51.154;13.570;2023-06-14T13:05:56;21.70;46.20
72940;DHT22;61094;51.154;13.570;2023-06-14T13:10:59;22.20;45.70
72940;DHT22;61094;51.154;13.570;2023-06-14T13:16:02;22.70;42.00
72940;DHT22;61094;51.154;13.570;2023-06-14T13:21:04;23.10;41.30
72940;DHT22;61094;51.154;13.570;2023-06-14T13:26:07;23.70;41.00
72940;DHT22;61094;51.154;13.570;2023-06-14T13:31:09;24.10;39.00
72940;DHT22;61094;51.154;13.570;2023-06-14T13:36:11;23.90;39.60
72940;DHT22;61094;51.154;13.570;2023-06-14T13:41:14;24.10;38.60
72940;DHT22;61094;51.154;13.570;2023-06-14T13:46:18;24.50;38.70
72940;DHT22;61094;51.154;13.570;2023-06-14T13:51:20;24.80;37.70
72940;DHT22;61094;51.154;13.570;2023-06-14T13:56:23;24.90;36.60
72940;DHT22;61094;51.154;13.570;2023-06-14T14:01:25;25.10;36.10
72940;DHT22;61094;51.154;13.570;2023-06-14T14:06:29;25.00;36.70
72940;DHT22;61094;51.154;13.570;2023-06-14T14:11:34;25.20;36.30
72940;DHT22;61094;51.154;13.570;2023-06-14T14:16:36;24.70;36.50
72940;DHT22;61094;51.154;13.570;2023-06-14T14:21:39;24.10;36.90
72940;DHT22;61094;51.154;13.570;2023-06-14T14:26:43;23.50;38.30
72940;DHT22;61094;51.154;13.570;2023-06-14T14:31:47;23.60;37.20
72940;DHT22;61094;51.154;13.570;2023-06-14T14:36:51;23.80;36.60
72940;DHT22;61094;51.154;13.570;2023-06-14T14:41:54;23.60;36.10
72940;DHT22;61094;51.154;13.570;2023-06-14T14:46:55;23.20;37.70
72940;DHT22;61094;51.154;13.570;2023-06-14T14:51:57;23.00;38.50
72940;DHT22;61094;51.154;13.570;2023-06-14T14:57:00;23.00;36.90
72940;DHT22;61094;51.154;13.570;2023-06-14T15:02:05;23.00;37.20
72940;DHT22;61094;51.154;13.570;2023-06-14T15:07:07;23.40;37.70
72940;DHT22;61094;51.154;13.570;2023-06-14T15:12:11;23.60;37.20
72940;DHT22;61094;51.154;13.570;2023-06-14T15:17:13;23.80;36.60
72940;DHT22;61094;51.154;13.570;2023-06-14T15:22:16;23.80;36.10
72940;DHT22;61094;51.154;13.570;2023-06-14T15:27:19;23.90;36.10
72940;DHT22;61094;51.154;13.570;2023-06-14T15:32:21;23.80;34.20
72940;DHT22;61094;51.154;13.570;2023-06-14T15:37:23;23.40;34.60
72940;DHT22;61094;51.154;13.570;2023-06-14T15:42:26;23.10;35.90
72940;DHT22;61094;51.154;13.570;2023-06-14T15:47:28;22.70;36.00
72940;DHT22;61094;51.154;13.570;2023-06-14T15:52:30;22.40;36.50
72940;DHT22;61094;51.154;13.570;2023-06-14T15:57:32;22.30;36.90
72940;DHT22;61094;51.154;13.570;2023-06-14T16:02:34;22.40;36.50
72940;DHT22;61094;51.154;13.570;2023-06-14T16:07:36;22.60;35.90
72940;DHT22;61094;51.154;13.570;2023-06-14T16:12:39;22.60;35.20
72940;DHT22;61094;51.154;13.570;2023-06-14T16:17:41;22.60;35.70
72940;DHT22;61094;51.154;13.570;2023-06-14T16:22:43;22.50;34.90
72940;DHT22;61094;51.154;13.570;2023-06-14T16:27:46;22.50;35.60
72940;DHT22;61094;51.154;13.570;2023-06-14T16:32:47;22.50;35.50
72940;DHT22;61094;51.154;13.570;2023-06-14T16:37:49;22.30;35.80
72940;DHT22;61094;51.154;13.570;2023-06-14T16:42:54;22.20;35.70
72940;DHT22;61094;51.154;13.570;2023-06-14T16:47:56;22.00;36.30
72940;DHT22;61094;51.154;13.570;2023-06-14T16:52:57;21.90;36.40
72940;DHT22;61094;51.154;13.570;2023-06-14T16:58:02;22.00;36.20
72940;DHT22;61094;51.154;13.570;2023-06-14T17:03:04;22.10;36.30
72940;DHT22;61094;51.154;13.570;2023-06-14T17:08:06;22.20;35.30
72940;DHT22;61094;51.154;13.570;2023-06-14T17:13:10;22.20;34.80
72940;DHT22;61094;51.154;13.570;2023-06-14T17:18:11;22.20;34.50
72940;DHT22;61094;51.154;13.570;2023-06-14T17:23:13;22.10;34.30
72940;DHT22;61094;51.154;13.570;2023-06-14T17:28:16;22.00;34.70
72940;DHT22;61094;51.154;13.570;2023-06-14T17:33:18;21.80;34.70
72940;DHT22;61094;51.154;13.570;2023-06-14T17:38:20;21.60;35.50
72940;DHT22;61094;51.154;13.570;2023-06-14T17:43:23;21.50;37.00
72940;DHT22;61094;51.154;13.570;2023-06-14T17:48:25;21.50;38.10
72940;DHT22;61094;51.154;13.570;2023-06-14T17:53:28;21.50;37.50
72940;DHT22;61094;51.154;13.570;2023-06-14T17:58:31;21.30;37.60
72940;DHT22;61094;51.154;13.570;2023-06-14T18:03:33;21.30;38.00
72940;DHT22;61094;51.154;13.570;2023-06-14T18:08:34;21.20;37.30
72940;DHT22;61094;51.154;13.570;2023-06-14T18:13:37;21.10;37.50
72940;DHT22;61094;51.154;13.570;2023-06-14T18:18:39;21.00;37.50
72940;DHT22;61094;51.154;13.570;2023-06-14T18:23:41;20.90;38.10
72940;DHT22;61094;51.154;13.570;2023-06-14T18:28:44;20.80;42.60
72940;DHT22;61094;51.154;13.570;2023-06-14T18:33:47;20.60;46.40
72940;DHT22;61094;51.154;13.570;2023-06-14T18:38:48;20.30;60.90
72940;DHT22;61094;51.154;13.570;2023-06-14T18:43:52;19.20;99.90
72940;DHT22;61094;51.154;13.570;2023-06-14T18:48:55;18.40;99.90
72940;DHT22;61094;51.154;13.570;2023-06-14T18:53:57;18.20;99.90
72940;DHT22;61094;51.154;13.570;2023-06-14T18:59:03;18.10;99.90
72940;DHT22;61094;51.154;13.570;2023-06-14T19:04:06;18.00;99.90
72940;DHT22;61094;51.154;13.570;2023-06-14T19:09:08;18.00;99.90
72940;DHT22;61094;51.154;13.570;2023-06-14T19:14:11;18.00;99.90
72940;DHT22;61094;51.154;13.570;2023-06-14T19:19:14;18.00;99.90
72940;DHT22;61094;51.154;13.570;2023-06-14T19:24:16;17.90;99.90
72940;DHT22;61094;51.154;13.570;2023-06-14T19:29:21;17.80;99.90
72940;DHT22;61094;51.154;13.570;2023-06-14T19:34:23;17.70;99.90
72940;DHT22;61094;51.154;13.570;2023-06-14T19:39:26;17.60;99.90
72940;DHT22;61094;51.154;13.570;2023-06-14T19:44:31;17.50;99.90
72940;DHT22;61094;51.154;13.570;2023-06-14T19:49:34;17.40;99.90
72940;DHT22;61094;51.154;13.570;2023-06-14T19:54:36;17.20;99.90
72940;DHT22;61094;51.154;13.570;2023-06-14T19:59:39;17.00;99.90
72940;DHT22;61094;51.154;13.570;2023-06-14T20:04:43;16.90;99.90
72940;DHT22;61094;51.154;13.570;2023-06-14T20:09:46;16.90;99.90
72940;DHT22;61094;51.154;13.570;2023-06-14T20:14:49;16.70;99.90
72940;DHT22;61094;51.154;13.570;2023-06-14T20:19:53;16.50;99.90
72940;DHT22;61094;51.154;13.570;2023-06-14T20:24:55;16.30;99.90
72940;DHT22;61094;51.154;13.570;2023-06-14T20:29:59;16.10;99.90
72940;DHT22;61094;51.154;13.570;2023-06-14T20:35:01;16.00;99.90
72940;DHT22;61094;51.154;13.570;2023-06-14T20:40:03;16.00;99.90
72940;DHT22;61094;51.154;13.570;2023-06-14T20:45:08;16.00;99.90
72940;DHT22;61094;51.154;13.570;2023-06-14T20:50:11;15.90;99.90
72940;DHT22;61094;51.154;13.570;2023-06-14T20:55:14;15.90;99.90
72940;DHT22;61094;51.154;13.570;2023-06-14T21:00:19;15.80;99.90
72940;DHT22;61094;51.154;13.570;2023-06-14T21:05:21;15.80;99.90
72940;DHT22;61094;51.154;13.570;2023-06-14T21:10:23;15.70;99.90
72940;DHT22;61094;51.154;13.570;2023-06-14T21:15:28;15.70;99.90
72940;DHT22;61094;51.154;13.570;2023-06-14T21:20:30;15.60;99.90
72940;DHT22;61094;51.154;13.570;2023-06-14T21:25:32;15.50;99.90
72940;DHT22;61094;51.154;13.570;2023-06-14T21:30:35;15.40;99.90
72940;DHT22;61094;51.154;13.570;2023-06-14T21:35:38;15.20;99.90
72940;DHT22;61094;51.154;13.570;2023-06-14T21:40:39;15.20;99.90
72940;DHT22;61094;51.154;13.570;2023-06-14T21:45:43;15.20;99.90
72940;DHT22;61094;51.154;13.570;2023-06-14T21:50:45;15.00;99.90
72940;DHT22;61094;51.154;13.570;2023-06-14T21:55:46;14.80;99.90
72940;DHT22;61094;51.154;13.570;2023-06-14T22:00:51;14.70;99.90
72940;DHT22;61094;51.154;13.570;2023-06-14T22:05:52;14.60;99.90
72940;DHT22;61094;51.154;13.570;2023-06-14T22:10:54;14.50;99.90
72940;DHT22;61094;51.154;13.570;2023-06-14T22:15:57;14.50;99.90
72940;DHT22;61094;51.154;13.570;2023-06-14T22:20:59;14.50;99.90
72940;DHT22;61094;51.154;13.570;2023-06-14T22:26:03;14.40;99.90
72940;DHT22;61094;51.154;13.570;2023-06-14T22:31:09;14.30;99.90
72940;DHT22;61094;51.154;13.570;2023-06-14T22:36:12;14.20;99.90
72940;DHT22;61094;51.154;13.570;2023-06-14T22:41:16;14.20;99.90
72940;DHT22;61094;51.154;13.570;2023-06-14T22:46:19;13.90;99.90
72940;DHT22;61094;51.154;13.570;2023-06-14T22:51:24;13.80;99.90
72940;DHT22;61094;51.154;13.570;2023-06-14T22:56:26;13.80;99.90
72940;DHT22;61094;51.154;13.570;2023-06-14T23:01:29;13.70;99.90
72940;DHT22;61094;51.154;13.570;2023-06-14T23:06:31;13.60;99.90
72940;DHT22;61094;51.154;13.570;2023-06-14T23:11:33;13.50;99.90
72940;DHT22;61094;51.154;13.570;2023-06-14T23:16:36;13.50;99.90
72940;DHT22;61094;51.154;13.570;2023-06-14T23:21:38;13.50;99.90
72940;DHT22;61094;51.154;13.570;2023-06-14T23:26:40;13.60;99.90
72940;DHT22;61094;51.154;13.570;2023-06-14T23:31:43;13.30;99.90
72940;DHT22;61094;51.154;13.570;2023-06-14T23:36:45;13.40;99.90
72940;DHT22;61094;51.154;13.570;2023-06-14T23:41:48;13.30;99.90
72940;DHT22;61094;51.154;13.570;2023-06-14T23:46:52;13.30;99.90
72940;DHT22;61094;51.154;13.570;2023-06-14T23:51:56;13.50;99.90
72940;DHT22;61094;51.154;13.570;2023-06-14T23:57:02;13.60;99.90
